sensor_id;sensor_type;location;lat;lon;timestamp;P1;durP1;ratioP1;P2;durP2;ratioP2
15142;SDS011;7672;50.834;6.286;2023-03-01T00:01:18;10.97;;;5.63;;
15142;SDS011;7672;50.834;6.286;2023-03-01T00:03:48;11.43;;;5.70;;
15142;SDS011;7672;50.834;6.286;2023-03-01T00:06:15;8.90;;;5.50;;
15142;SDS011;7672;50.834;6.286;2023-03-01T00:08:43;10.93;;;6.67;;
15142;SDS011;7672;50.834;6.286;2023-03-01T00:11:20;9.13;;;5.50;;
15142;SDS011;7672;50.834;6.286;2023-03-01T00:13:53;9.37;;;5.80;;
15142;SDS011;7672;50.834;6.286;2023-03-01T00:16:34;6.50;;;5.80;;
15142;SDS011;7672;50.834;6.286;2023-03-01T00:19:06;12.93;;;6.63;;
15142;SDS011;7672;50.834;6.286;2023-03-01T00:21:37;8.63;;;6.60;;
15142;SDS011;7672;50.834;6.286;2023-03-01T00:24:04;8.93;;;6.00;;
15142;SDS011;7672;50.834;6.286;2023-03-01T00:26:31;9.03;;;5.87;;
15142;SDS011;7672;50.834;6.286;2023-03-01T00:28:59;10.33;;;6.73;;
15142;SDS011;7672;50.834;6.286;2023-03-01T00:31:27;12.43;;;6.53;;
15142;SDS011;7672;50.834;6.286;2023-03-01T00:33:58;9.73;;;6.47;;
15142;SDS011;7672;50.834;6.286;2023-03-01T00:36:28;9.25;;;6.40;;
15142;SDS011;7672;50.834;6.286;2023-03-01T00:38:59;7.53;;;5.87;;
15142;SDS011;7672;50.834;6.286;2023-03-01T00:41:27;6.60;;;5.97;;
15142;SDS011;7672;50.834;6.286;2023-03-01T00:43:54;9.67;;;5.83;;
15142;SDS011;7672;50.834;6.286;2023-03-01T00:46:22;7.77;;;5.80;;
15142;SDS011;7672;50.834;6.286;2023-03-01T00:48:52;9.97;;;6.77;;
15142;SDS011;7672;50.834;6.286;2023-03-01T00:51:23;9.17;;;5.93;;
15142;SDS011;7672;50.834;6.286;2023-03-01T00:53:53;8.27;;;6.30;;
15142;SDS011;7672;50.834;6.286;2023-03-01T00:56:26;11.83;;;6.20;;
15142;SDS011;7672;50.834;6.286;2023-03-01T00:58:54;9.43;;;6.60;;
15142;SDS011;7672;50.834;6.286;2023-03-01T01:01:22;7.93;;;6.17;;
15142;SDS011;7672;50.834;6.286;2023-03-01T01:06:34;11.30;;;6.67;;
15142;SDS011;7672;50.834;6.286;2023-03-01T01:09:15;12.27;;;7.03;;
15142;SDS011;7672;50.834;6.286;2023-03-01T01:11:47;10.37;;;6.73;;
15142;SDS011;7672;50.834;6.286;2023-03-01T01:14:17;10.30;;;6.67;;
15142;SDS011;7672;50.834;6.286;2023-03-01T01:16:45;13.63;;;6.67;;
15142;SDS011;7672;50.834;6.286;2023-03-01T01:19:12;9.17;;;6.90;;
15142;SDS011;7672;50.834;6.286;2023-03-01T01:21:39;13.07;;;6.13;;
15142;SDS011;7672;50.834;6.286;2023-03-01T01:24:09;9.37;;;5.97;;
15142;SDS011;7672;50.834;6.286;2023-03-01T01:26:36;11.27;;;6.00;;
15142;SDS011;7672;50.834;6.286;2023-03-01T01:29:04;9.27;;;6.50;;
15142;SDS011;7672;50.834;6.286;2023-03-01T01:31:32;10.20;;;6.43;;
15142;SDS011;7672;50.834;6.286;2023-03-01T01:34:01;11.90;;;6.90;;
15142;SDS011;7672;50.834;6.286;2023-03-01T01:36:31;16.60;;;6.80;;
15142;SDS011;7672;50.834;6.286;2023-03-01T01:39:00;13.07;;;6.63;;
15142;SDS011;7672;50.834;6.286;2023-03-01T01:41:28;13.40;;;6.40;;
15142;SDS011;7672;50.834;6.286;2023-03-01T01:44:11;12.80;;;6.17;;
15142;SDS011;7672;50.834;6.286;2023-03-01T01:49:51;11.43;;;6.33;;
15142;SDS011;7672;50.834;6.286;2023-03-01T01:52:23;9.27;;;5.70;;
15142;SDS011;7672;50.834;6.286;2023-03-01T01:57:40;10.30;;;6.67;;
15142;SDS011;7672;50.834;6.286;2023-03-01T02:02:45;10.03;;;6.47;;
15142;SDS011;7672;50.834;6.286;2023-03-01T02:05:20;8.60;;;5.80;;
15142;SDS011;7672;50.834;6.286;2023-03-01T02:07:59;8.60;;;5.83;;
15142;SDS011;7672;50.834;6.286;2023-03-01T02:10:26;11.03;;;6.43;;
15142;SDS011;7672;50.834;6.286;2023-03-01T02:12:55;10.23;;;7.10;;
15142;SDS011;7672;50.834;6.286;2023-03-01T02:15:23;9.77;;;6.80;;
15142;SDS011;7672;50.834;6.286;2023-03-01T02:17:50;9.90;;;7.13;;
15142;SDS011;7672;50.834;6.286;2023-03-01T02:23:34;9.17;;;6.60;;
15142;SDS011;7672;50.834;6.286;2023-03-01T02:26:15;13.00;;;8.20;;
15142;SDS011;7672;50.834;6.286;2023-03-01T02:29:07;9.37;;;7.63;;
15142;SDS011;7672;50.834;6.286;2023-03-01T02:31:34;14.60;;;6.80;;
15142;SDS011;7672;50.834;6.286;2023-03-01T02:34:20;11.77;;;7.30;;
15142;SDS011;7672;50.834;6.286;2023-03-01T02:36:59;14.87;;;7.67;;
15142;SDS011;7672;50.834;6.286;2023-03-01T02:42:11;13.23;;;7.80;;
15142;SDS011;7672;50.834;6.286;2023-03-01T02:44:45;12.07;;;7.67;;
15142;SDS011;7672;50.834;6.286;2023-03-01T02:47:12;10.13;;;6.83;;
15142;SDS011;7672;50.834;6.286;2023-03-01T02:49:39;10.53;;;7.30;;
15142;SDS011;7672;50.834;6.286;2023-03-01T02:57:39;10.43;;;7.20;;
15142;SDS011;7672;50.834;6.286;2023-03-01T03:00:11;11.10;;;6.90;;
15142;SDS011;7672;50.834;6.286;2023-03-01T03:02:47;10.77;;;7.87;;
15142;SDS011;7672;50.834;6.286;2023-03-01T03:05:18;9.93;;;7.47;;
15142;SDS011;7672;50.834;6.286;2023-03-01T03:07:54;16.40;;;7.23;;
15142;SDS011;7672;50.834;6.286;2023-03-01T03:10:27;8.80;;;6.50;;
15142;SDS011;7672;50.834;6.286;2023-03-01T03:13:00;10.40;;;7.00;;
15142;SDS011;7672;50.834;6.286;2023-03-01T03:15:31;14.30;;;6.73;;
15142;SDS011;7672;50.834;6.286;2023-03-01T03:18:03;10.10;;;7.13;;
15142;SDS011;7672;50.834;6.286;2023-03-01T03:20:33;16.47;;;6.53;;
15142;SDS011;7672;50.834;6.286;2023-03-01T03:23:02;14.37;;;6.83;;
15142;SDS011;7672;50.834;6.286;2023-03-01T03:25:29;10.63;;;6.73;;
15142;SDS011;7672;50.834;6.286;2023-03-01T03:27:56;10.93;;;6.53;;
15142;SDS011;7672;50.834;6.286;2023-03-01T03:30:25;9.93;;;6.77;;
15142;SDS011;7672;50.834;6.286;2023-03-01T03:32:55;14.97;;;6.67;;
15142;SDS011;7672;50.834;6.286;2023-03-01T03:35:31;9.73;;;6.70;;
15142;SDS011;7672;50.834;6.286;2023-03-01T03:38:05;9.47;;;6.67;;
15142;SDS011;7672;50.834;6.286;2023-03-01T03:40:42;15.63;;;6.73;;
15142;SDS011;7672;50.834;6.286;2023-03-01T03:43:19;10.43;;;6.30;;
15142;SDS011;7672;50.834;6.286;2023-03-01T03:45:49;13.20;;;7.07;;
15142;SDS011;7672;50.834;6.286;2023-03-01T03:48:17;12.10;;;7.13;;
15142;SDS011;7672;50.834;6.286;2023-03-01T03:50:51;9.07;;;6.47;;
15142;SDS011;7672;50.834;6.286;2023-03-01T03:53:22;7.63;;;6.23;;
15142;SDS011;7672;50.834;6.286;2023-03-01T03:55:51;15.20;;;6.80;;
15142;SDS011;7672;50.834;6.286;2023-03-01T03:58:20;11.40;;;6.60;;
15142;SDS011;7672;50.834;6.286;2023-03-01T04:00:50;19.70;;;7.63;;
15142;SDS011;7672;50.834;6.286;2023-03-01T04:03:22;10.00;;;6.27;;
15142;SDS011;7672;50.834;6.286;2023-03-01T04:05:52;9.73;;;6.93;;
15142;SDS011;7672;50.834;6.286;2023-03-01T04:08:20;10.90;;;6.23;;
15142;SDS011;7672;50.834;6.286;2023-03-01T04:10:50;9.70;;;6.77;;
15142;SDS011;7672;50.834;6.286;2023-03-01T04:13:22;10.00;;;6.03;;
15142;SDS011;7672;50.834;6.286;2023-03-01T04:15:52;9.60;;;6.60;;
15142;SDS011;7672;50.834;6.286;2023-03-01T04:18:21;12.67;;;6.53;;
15142;SDS011;7672;50.834;6.286;2023-03-01T04:20:50;8.07;;;6.40;;
15142;SDS011;7672;50.834;6.286;2023-03-01T04:23:21;13.77;;;7.03;;
15142;SDS011;7672;50.834;6.286;2023-03-01T04:25:55;10.60;;;6.60;;
15142;SDS011;7672;50.834;6.286;2023-03-01T04:28:27;12.17;;;6.67;;
15142;SDS011;7672;50.834;6.286;2023-03-01T04:31:02;10.67;;;7.77;;
15142;SDS011;7672;50.834;6.286;2023-03-01T04:33:40;9.47;;;6.37;;
15142;SDS011;7672;50.834;6.286;2023-03-01T04:36:18;7.53;;;6.00;;
15142;SDS011;7672;50.834;6.286;2023-03-01T04:38:49;11.83;;;6.50;;
15142;SDS011;7672;50.834;6.286;2023-03-01T04:41:17;8.07;;;6.53;;
15142;SDS011;7672;50.834;6.286;2023-03-01T04:43:46;10.93;;;6.77;;
15142;SDS011;7672;50.834;6.286;2023-03-01T04:46:15;13.87;;;7.20;;
15142;SDS011;7672;50.834;6.286;2023-03-01T04:48:45;9.43;;;6.80;;
15142;SDS011;7672;50.834;6.286;2023-03-01T04:51:13;9.17;;;6.87;;
15142;SDS011;7672;50.834;6.286;2023-03-01T04:53:41;10.57;;;7.23;;
15142;SDS011;7672;50.834;6.286;2023-03-01T04:56:09;9.83;;;6.83;;
15142;SDS011;7672;50.834;6.286;2023-03-01T04:58:36;10.87;;;7.00;;
15142;SDS011;7672;50.834;6.286;2023-03-01T05:01:08;11.23;;;6.47;;
15142;SDS011;7672;50.834;6.286;2023-03-01T05:03:43;11.90;;;7.83;;
15142;SDS011;7672;50.834;6.286;2023-03-01T05:06:13;9.73;;;6.97;;
15142;SDS011;7672;50.834;6.286;2023-03-01T05:08:41;12.17;;;7.40;;
15142;SDS011;7672;50.834;6.286;2023-03-01T05:11:10;10.87;;;7.80;;
15142;SDS011;7672;50.834;6.286;2023-03-01T05:13:38;10.73;;;7.93;;
15142;SDS011;7672;50.834;6.286;2023-03-01T05:16:06;10.47;;;7.10;;
15142;SDS011;7672;50.834;6.286;2023-03-01T05:18:38;12.57;;;7.10;;
15142;SDS011;7672;50.834;6.286;2023-03-01T05:21:08;10.80;;;7.73;;
15142;SDS011;7672;50.834;6.286;2023-03-01T05:23:38;14.13;;;7.70;;
15142;SDS011;7672;50.834;6.286;2023-03-01T05:26:05;10.43;;;7.37;;
15142;SDS011;7672;50.834;6.286;2023-03-01T05:28:51;9.87;;;7.90;;
15142;SDS011;7672;50.834;6.286;2023-03-01T05:31:18;13.70;;;8.57;;
15142;SDS011;7672;50.834;6.286;2023-03-01T05:33:45;14.10;;;8.33;;
15142;SDS011;7672;50.834;6.286;2023-03-01T05:36:11;11.77;;;7.90;;
15142;SDS011;7672;50.834;6.286;2023-03-01T05:38:38;11.10;;;7.60;;
15142;SDS011;7672;50.834;6.286;2023-03-01T05:41:05;10.37;;;7.83;;
15142;SDS011;7672;50.834;6.286;2023-03-01T05:43:41;16.07;;;7.40;;
15142;SDS011;7672;50.834;6.286;2023-03-01T05:46:11;11.80;;;7.23;;
15142;SDS011;7672;50.834;6.286;2023-03-01T05:48:39;12.27;;;7.53;;
15142;SDS011;7672;50.834;6.286;2023-03-01T05:51:06;14.33;;;8.50;;
15142;SDS011;7672;50.834;6.286;2023-03-01T05:53:34;11.00;;;7.87;;
15142;SDS011;7672;50.834;6.286;2023-03-01T05:56:02;13.47;;;7.60;;
15142;SDS011;7672;50.834;6.286;2023-03-01T05:58:33;11.70;;;7.77;;
15142;SDS011;7672;50.834;6.286;2023-03-01T06:01:00;11.47;;;7.57;;
15142;SDS011;7672;50.834;6.286;2023-03-01T06:03:26;10.03;;;6.97;;
15142;SDS011;7672;50.834;6.286;2023-03-01T06:05:56;12.60;;;8.27;;
15142;SDS011;7672;50.834;6.286;2023-03-01T06:08:24;9.37;;;7.53;;
15142;SDS011;7672;50.834;6.286;2023-03-01T06:10:53;12.27;;;7.97;;
15142;SDS011;7672;50.834;6.286;2023-03-01T06:13:20;16.90;;;7.90;;
15142;SDS011;7672;50.834;6.286;2023-03-01T06:15:46;8.73;;;6.90;;
15142;SDS011;7672;50.834;6.286;2023-03-01T06:18:13;8.83;;;7.17;;
15142;SDS011;7672;50.834;6.286;2023-03-01T06:20:40;12.87;;;7.20;;
15142;SDS011;7672;50.834;6.286;2023-03-01T06:23:07;12.73;;;7.77;;
15142;SDS011;7672;50.834;6.286;2023-03-01T06:25:35;11.60;;;7.70;;
15142;SDS011;7672;50.834;6.286;2023-03-01T06:28:03;17.80;;;9.03;;
15142;SDS011;7672;50.834;6.286;2023-03-01T06:30:30;10.77;;;8.03;;
15142;SDS011;7672;50.834;6.286;2023-03-01T06:32:58;19.50;;;8.67;;
15142;SDS011;7672;50.834;6.286;2023-03-01T06:35:27;13.00;;;9.03;;
15142;SDS011;7672;50.834;6.286;2023-03-01T06:37:59;13.13;;;8.67;;
15142;SDS011;7672;50.834;6.286;2023-03-01T06:40:28;14.27;;;8.63;;
15142;SDS011;7672;50.834;6.286;2023-03-01T06:42:57;18.70;;;9.17;;
15142;SDS011;7672;50.834;6.286;2023-03-01T06:45:24;22.47;;;9.80;;
15142;SDS011;7672;50.834;6.286;2023-03-01T06:47:51;14.20;;;10.20;;
15142;SDS011;7672;50.834;6.286;2023-03-01T06:50:18;22.63;;;10.23;;
15142;SDS011;7672;50.834;6.286;2023-03-01T06:52:45;21.43;;;10.87;;
15142;SDS011;7672;50.834;6.286;2023-03-01T06:55:11;18.37;;;10.33;;
15142;SDS011;7672;50.834;6.286;2023-03-01T06:57:39;20.33;;;10.57;;
15142;SDS011;7672;50.834;6.286;2023-03-01T07:00:06;16.57;;;11.13;;
15142;SDS011;7672;50.834;6.286;2023-03-01T07:02:34;23.97;;;11.00;;
15142;SDS011;7672;50.834;6.286;2023-03-01T07:05:01;20.67;;;10.20;;
15142;SDS011;7672;50.834;6.286;2023-03-01T07:07:28;20.57;;;10.03;;
15142;SDS011;7672;50.834;6.286;2023-03-01T07:09:55;18.03;;;10.20;;
15142;SDS011;7672;50.834;6.286;2023-03-01T07:12:22;13.90;;;10.00;;
15142;SDS011;7672;50.834;6.286;2023-03-01T07:14:49;19.57;;;10.63;;
15142;SDS011;7672;50.834;6.286;2023-03-01T07:17:16;18.40;;;9.90;;
15142;SDS011;7672;50.834;6.286;2023-03-01T07:19:43;15.73;;;9.93;;
15142;SDS011;7672;50.834;6.286;2023-03-01T07:22:10;16.57;;;9.00;;
15142;SDS011;7672;50.834;6.286;2023-03-01T07:24:37;16.70;;;10.40;;
15142;SDS011;7672;50.834;6.286;2023-03-01T07:27:04;21.70;;;9.97;;
15142;SDS011;7672;50.834;6.286;2023-03-01T07:29:31;17.70;;;9.40;;
15142;SDS011;7672;50.834;6.286;2023-03-01T07:31:58;14.57;;;9.63;;
15142;SDS011;7672;50.834;6.286;2023-03-01T07:34:24;20.40;;;9.13;;
15142;SDS011;7672;50.834;6.286;2023-03-01T07:36:51;12.07;;;8.83;;
15142;SDS011;7672;50.834;6.286;2023-03-01T07:39:18;20.43;;;9.57;;
15142;SDS011;7672;50.834;6.286;2023-03-01T07:41:45;16.63;;;9.17;;
15142;SDS011;7672;50.834;6.286;2023-03-01T07:44:12;18.67;;;10.27;;
15142;SDS011;7672;50.834;6.286;2023-03-01T07:46:39;16.07;;;10.33;;
15142;SDS011;7672;50.834;6.286;2023-03-01T07:49:05;18.17;;;10.07;;
15142;SDS011;7672;50.834;6.286;2023-03-01T07:51:32;18.57;;;9.63;;
15142;SDS011;7672;50.834;6.286;2023-03-01T07:53:59;15.73;;;9.80;;
15142;SDS011;7672;50.834;6.286;2023-03-01T07:56:26;15.40;;;8.73;;
15142;SDS011;7672;50.834;6.286;2023-03-01T07:58:53;17.63;;;10.10;;
15142;SDS011;7672;50.834;6.286;2023-03-01T08:01:20;26.37;;;10.70;;
15142;SDS011;7672;50.834;6.286;2023-03-01T08:03:48;17.70;;;10.23;;
15142;SDS011;7672;50.834;6.286;2023-03-01T08:06:16;15.93;;;9.80;;
15142;SDS011;7672;50.834;6.286;2023-03-01T08:08:43;16.53;;;10.23;;
15142;SDS011;7672;50.834;6.286;2023-03-01T08:11:12;15.73;;;9.10;;
15142;SDS011;7672;50.834;6.286;2023-03-01T08:13:41;15.67;;;9.33;;
15142;SDS011;7672;50.834;6.286;2023-03-01T08:16:13;13.30;;;10.17;;
15142;SDS011;7672;50.834;6.286;2023-03-01T08:18:42;13.07;;;9.57;;
15142;SDS011;7672;50.834;6.286;2023-03-01T08:21:13;16.33;;;9.60;;
15142;SDS011;7672;50.834;6.286;2023-03-01T08:23:43;15.17;;;9.80;;
15142;SDS011;7672;50.834;6.286;2023-03-01T08:26:12;15.47;;;9.70;;
15142;SDS011;7672;50.834;6.286;2023-03-01T08:28:45;21.53;;;9.50;;
15142;SDS011;7672;50.834;6.286;2023-03-01T08:31:23;16.10;;;9.30;;
15142;SDS011;7672;50.834;6.286;2023-03-01T08:33:55;17.00;;;9.70;;
15142;SDS011;7672;50.834;6.286;2023-03-01T08:36:26;19.83;;;9.20;;
15142;SDS011;7672;50.834;6.286;2023-03-01T08:38:57;22.53;;;10.03;;
15142;SDS011;7672;50.834;6.286;2023-03-01T08:41:24;19.10;;;10.90;;
15142;SDS011;7672;50.834;6.286;2023-03-01T08:43:51;18.47;;;10.60;;
15142;SDS011;7672;50.834;6.286;2023-03-01T08:46:25;21.90;;;10.97;;
15142;SDS011;7672;50.834;6.286;2023-03-01T08:49:00;18.93;;;11.37;;
15142;SDS011;7672;50.834;6.286;2023-03-01T08:51:30;26.83;;;12.43;;
15142;SDS011;7672;50.834;6.286;2023-03-01T08:54:06;20.17;;;11.90;;
15142;SDS011;7672;50.834;6.286;2023-03-01T08:56:37;20.93;;;11.33;;
15142;SDS011;7672;50.834;6.286;2023-03-01T08:59:04;24.90;;;11.70;;
15142;SDS011;7672;50.834;6.286;2023-03-01T09:01:31;19.20;;;12.93;;
15142;SDS011;7672;50.834;6.286;2023-03-01T09:03:58;15.60;;;11.60;;
15142;SDS011;7672;50.834;6.286;2023-03-01T09:06:26;14.07;;;11.77;;
15142;SDS011;7672;50.834;6.286;2023-03-01T09:08:52;16.73;;;12.87;;
15142;SDS011;7672;50.834;6.286;2023-03-01T09:11:21;16.07;;;12.60;;
15142;SDS011;7672;50.834;6.286;2023-03-01T09:13:48;20.10;;;13.67;;
15142;SDS011;7672;50.834;6.286;2023-03-01T09:16:17;19.50;;;12.23;;
15142;SDS011;7672;50.834;6.286;2023-03-01T09:18:52;17.20;;;12.60;;
15142;SDS011;7672;50.834;6.286;2023-03-01T09:21:21;16.30;;;12.73;;
15142;SDS011;7672;50.834;6.286;2023-03-01T09:24:05;15.70;;;12.03;;
15142;SDS011;7672;50.834;6.286;2023-03-01T09:26:38;19.83;;;13.67;;
15142;SDS011;7672;50.834;6.286;2023-03-01T09:29:05;15.60;;;12.43;;
15142;SDS011;7672;50.834;6.286;2023-03-01T09:31:32;16.80;;;13.83;;
15142;SDS011;7672;50.834;6.286;2023-03-01T09:33:58;15.10;;;13.47;;
15142;SDS011;7672;50.834;6.286;2023-03-01T09:36:25;14.77;;;13.27;;
15142;SDS011;7672;50.834;6.286;2023-03-01T09:38:52;14.63;;;12.43;;
15142;SDS011;7672;50.834;6.286;2023-03-01T09:47:17;14.93;;;13.03;;
15142;SDS011;7672;50.834;6.286;2023-03-01T09:52:54;17.37;;;13.20;;
15142;SDS011;7672;50.834;6.286;2023-03-01T09:55:34;16.67;;;13.90;;
15142;SDS011;7672;50.834;6.286;2023-03-01T10:00:53;15.40;;;13.30;;
15142;SDS011;7672;50.834;6.286;2023-03-01T10:03:32;14.47;;;12.97;;
15142;SDS011;7672;50.834;6.286;2023-03-01T10:11:47;17.13;;;13.57;;
15142;SDS011;7672;50.834;6.286;2023-03-01T10:17:05;16.77;;;13.20;;
15142;SDS011;7672;50.834;6.286;2023-03-01T10:19:54;19.80;;;13.23;;
15142;SDS011;7672;50.834;6.286;2023-03-01T10:22:36;15.07;;;13.03;;
15142;SDS011;7672;50.834;6.286;2023-03-01T10:25:03;13.83;;;12.07;;
15142;SDS011;7672;50.834;6.286;2023-03-01T10:27:51;15.20;;;13.70;;
15142;SDS011;7672;50.834;6.286;2023-03-01T10:30:22;14.33;;;12.80;;
15142;SDS011;7672;50.834;6.286;2023-03-01T10:33:09;15.57;;;13.87;;
15142;SDS011;7672;50.834;6.286;2023-03-01T10:35:52;15.20;;;13.10;;
15142;SDS011;7672;50.834;6.286;2023-03-01T10:38:19;14.73;;;13.07;;
15142;SDS011;7672;50.834;6.286;2023-03-01T10:40:54;14.60;;;13.10;;
15142;SDS011;7672;50.834;6.286;2023-03-01T10:43:46;18.43;;;13.30;;
15142;SDS011;7672;50.834;6.286;2023-03-01T10:51:47;14.63;;;13.13;;
15142;SDS011;7672;50.834;6.286;2023-03-01T10:56:59;18.00;;;13.20;;
15142;SDS011;7672;50.834;6.286;2023-03-01T11:02:24;16.20;;;12.90;;
15142;SDS011;7672;50.834;6.286;2023-03-01T11:07:48;17.17;;;13.33;;
15142;SDS011;7672;50.834;6.286;2023-03-01T11:10:22;16.00;;;13.20;;
15142;SDS011;7672;50.834;6.286;2023-03-01T11:16:03;26.67;;;13.63;;
15142;SDS011;7672;50.834;6.286;2023-03-01T11:18:38;16.80;;;13.67;;
15142;SDS011;7672;50.834;6.286;2023-03-01T11:21:14;18.40;;;13.10;;
15142;SDS011;7672;50.834;6.286;2023-03-01T11:23:42;14.87;;;12.30;;
15142;SDS011;7672;50.834;6.286;2023-03-01T11:26:12;16.63;;;11.63;;
15142;SDS011;7672;50.834;6.286;2023-03-01T11:28:41;15.13;;;12.33;;
15142;SDS011;7672;50.834;6.286;2023-03-01T11:31:13;15.50;;;11.63;;
15142;SDS011;7672;50.834;6.286;2023-03-01T11:33:47;21.47;;;12.03;;
15142;SDS011;7672;50.834;6.286;2023-03-01T11:42:14;16.83;;;12.43;;
15142;SDS011;7672;50.834;6.286;2023-03-01T11:44:55;15.10;;;12.77;;
15142;SDS011;7672;50.834;6.286;2023-03-01T11:50:42;15.37;;;12.17;;
15142;SDS011;7672;50.834;6.286;2023-03-01T11:56:31;15.87;;;11.73;;
15142;SDS011;7672;50.834;6.286;2023-03-01T12:08:35;16.13;;;14.17;;
15142;SDS011;7672;50.834;6.286;2023-03-01T12:14:35;20.47;;;13.70;;
15142;SDS011;7672;50.834;6.286;2023-03-01T12:23:03;16.63;;;13.73;;
15142;SDS011;7672;50.834;6.286;2023-03-01T12:26:10;18.37;;;14.40;;
15142;SDS011;7672;50.834;6.286;2023-03-01T12:29:16;23.47;;;13.80;;
15142;SDS011;7672;50.834;6.286;2023-03-01T12:38:02;17.80;;;12.97;;
15142;SDS011;7672;50.834;6.286;2023-03-01T12:51:42;14.13;;;11.07;;
15142;SDS011;7672;50.834;6.286;2023-03-01T12:54:30;16.23;;;11.10;;
15142;SDS011;7672;50.834;6.286;2023-03-01T12:57:15;15.53;;;10.53;;
15142;SDS011;7672;50.834;6.286;2023-03-01T13:02:47;18.27;;;10.87;;
15142;SDS011;7672;50.834;6.286;2023-03-01T13:11:23;18.23;;;10.47;;
15142;SDS011;7672;50.834;6.286;2023-03-01T13:13:50;25.87;;;11.73;;
15142;SDS011;7672;50.834;6.286;2023-03-01T13:16:20;16.80;;;11.67;;
15142;SDS011;7672;50.834;6.286;2023-03-01T13:19:12;19.50;;;10.83;;
15142;SDS011;7672;50.834;6.286;2023-03-01T13:21:43;14.27;;;10.63;;
15142;SDS011;7672;50.834;6.286;2023-03-01T13:24:27;20.47;;;10.43;;
15142;SDS011;7672;50.834;6.286;2023-03-01T13:29:55;17.73;;;11.17;;
15142;SDS011;7672;50.834;6.286;2023-03-01T13:32:30;13.87;;;10.00;;
15142;SDS011;7672;50.834;6.286;2023-03-01T13:37:46;11.90;;;9.50;;
15142;SDS011;7672;50.834;6.286;2023-03-01T13:42:47;14.73;;;9.10;;
15142;SDS011;7672;50.834;6.286;2023-03-01T13:45:40;12.10;;;8.00;;
15142;SDS011;7672;50.834;6.286;2023-03-01T13:48:16;11.60;;;9.03;;
15142;SDS011;7672;50.834;6.286;2023-03-01T13:50:55;12.73;;;8.83;;
15142;SDS011;7672;50.834;6.286;2023-03-01T13:53:29;15.27;;;8.87;;
15142;SDS011;7672;50.834;6.286;2023-03-01T13:56:03;13.00;;;9.30;;
15142;SDS011;7672;50.834;6.286;2023-03-01T13:58:53;22.40;;;10.07;;
15142;SDS011;7672;50.834;6.286;2023-03-01T14:01:39;14.90;;;9.37;;
15142;SDS011;7672;50.834;6.286;2023-03-01T14:04:21;12.07;;;9.27;;
15142;SDS011;7672;50.834;6.286;2023-03-01T14:07:08;15.47;;;9.50;;
15142;SDS011;7672;50.834;6.286;2023-03-01T14:09:44;11.73;;;8.43;;
15142;SDS011;7672;50.834;6.286;2023-03-01T14:12:39;15.17;;;10.23;;
15142;SDS011;7672;50.834;6.286;2023-03-01T14:20:42;13.63;;;9.13;;
15142;SDS011;7672;50.834;6.286;2023-03-01T14:23:18;10.63;;;9.13;;
15142;SDS011;7672;50.834;6.286;2023-03-01T14:25:53;13.13;;;10.20;;
15142;SDS011;7672;50.834;6.286;2023-03-01T14:28:30;13.10;;;9.70;;
15142;SDS011;7672;50.834;6.286;2023-03-01T14:31:00;11.63;;;9.93;;
15142;SDS011;7672;50.834;6.286;2023-03-01T14:33:29;16.97;;;10.63;;
15142;SDS011;7672;50.834;6.286;2023-03-01T14:36:01;14.20;;;10.20;;
15142;SDS011;7672;50.834;6.286;2023-03-01T14:38:42;13.60;;;9.47;;
15142;SDS011;7672;50.834;6.286;2023-03-01T14:41:18;15.17;;;10.73;;
15142;SDS011;7672;50.834;6.286;2023-03-01T14:46:30;13.67;;;9.93;;
15142;SDS011;7672;50.834;6.286;2023-03-01T14:51:40;14.17;;;9.27;;
15142;SDS011;7672;50.834;6.286;2023-03-01T14:54:25;14.50;;;9.37;;
15142;SDS011;7672;50.834;6.286;2023-03-01T14:57:15;15.43;;;8.83;;
15142;SDS011;7672;50.834;6.286;2023-03-01T14:59:51;20.63;;;9.90;;
15142;SDS011;7672;50.834;6.286;2023-03-01T15:02:26;9.37;;;8.33;;
15142;SDS011;7672;50.834;6.286;2023-03-01T15:04:56;12.43;;;8.37;;
15142;SDS011;7672;50.834;6.286;2023-03-01T15:07:29;10.40;;;8.00;;
15142;SDS011;7672;50.834;6.286;2023-03-01T15:10:00;14.20;;;8.37;;
15142;SDS011;7672;50.834;6.286;2023-03-01T15:12:37;14.90;;;8.47;;
15142;SDS011;7672;50.834;6.286;2023-03-01T15:17:55;15.97;;;8.83;;
15142;SDS011;7672;50.834;6.286;2023-03-01T15:20:25;13.20;;;8.53;;
15142;SDS011;7672;50.834;6.286;2023-03-01T15:22:56;12.07;;;8.50;;
15142;SDS011;7672;50.834;6.286;2023-03-01T15:25:26;14.43;;;8.40;;
15142;SDS011;7672;50.834;6.286;2023-03-01T15:27:57;17.50;;;8.13;;
15142;SDS011;7672;50.834;6.286;2023-03-01T15:30:31;12.23;;;8.23;;
15142;SDS011;7672;50.834;6.286;2023-03-01T15:33:46;10.97;;;7.43;;
15142;SDS011;7672;50.834;6.286;2023-03-01T15:36:03;12.90;;;8.80;;
15142;SDS011;7672;50.834;6.286;2023-03-01T15:45:08;9.70;;;7.73;;
15142;SDS011;7672;50.834;6.286;2023-03-01T15:47:46;15.70;;;8.77;;
15142;SDS011;7672;50.834;6.286;2023-03-01T15:50:28;9.73;;;6.80;;
15142;SDS011;7672;50.834;6.286;2023-03-01T15:52:59;18.80;;;8.23;;
15142;SDS011;7672;50.834;6.286;2023-03-01T15:55:32;11.10;;;8.00;;
15142;SDS011;7672;50.834;6.286;2023-03-01T15:58:00;11.07;;;8.20;;
15142;SDS011;7672;50.834;6.286;2023-03-01T16:00:43;10.47;;;7.50;;
15142;SDS011;7672;50.834;6.286;2023-03-01T16:03:26;9.40;;;7.00;;
15142;SDS011;7672;50.834;6.286;2023-03-01T16:05:54;9.70;;;7.10;;
15142;SDS011;7672;50.834;6.286;2023-03-01T16:08:21;10.37;;;6.73;;
15142;SDS011;7672;50.834;6.286;2023-03-01T16:10:48;13.97;;;7.37;;
15142;SDS011;7672;50.834;6.286;2023-03-01T16:13:17;10.93;;;7.33;;
15142;SDS011;7672;50.834;6.286;2023-03-01T16:15:44;11.13;;;7.60;;
15142;SDS011;7672;50.834;6.286;2023-03-01T16:18:11;10.90;;;7.77;;
15142;SDS011;7672;50.834;6.286;2023-03-01T16:20:38;13.03;;;7.70;;
15142;SDS011;7672;50.834;6.286;2023-03-01T16:23:06;10.93;;;7.37;;
15142;SDS011;7672;50.834;6.286;2023-03-01T16:25:36;12.47;;;7.80;;
15142;SDS011;7672;50.834;6.286;2023-03-01T16:28:04;9.13;;;6.90;;
15142;SDS011;7672;50.834;6.286;2023-03-01T16:30:35;11.17;;;7.87;;
15142;SDS011;7672;50.834;6.286;2023-03-01T16:33:05;8.23;;;5.80;;
15142;SDS011;7672;50.834;6.286;2023-03-01T16:35:50;11.77;;;7.17;;
15142;SDS011;7672;50.834;6.286;2023-03-01T16:38:17;8.77;;;7.33;;
15142;SDS011;7672;50.834;6.286;2023-03-01T16:40:46;12.40;;;7.10;;
15142;SDS011;7672;50.834;6.286;2023-03-01T16:43:16;15.17;;;7.23;;
15142;SDS011;7672;50.834;6.286;2023-03-01T16:45:43;12.70;;;7.50;;
15142;SDS011;7672;50.834;6.286;2023-03-01T16:48:13;11.20;;;7.33;;
15142;SDS011;7672;50.834;6.286;2023-03-01T16:50:40;9.13;;;7.00;;
15142;SDS011;7672;50.834;6.286;2023-03-01T16:53:07;13.13;;;7.10;;
15142;SDS011;7672;50.834;6.286;2023-03-01T16:55:34;9.97;;;7.07;;
15142;SDS011;7672;50.834;6.286;2023-03-01T16:58:01;10.00;;;6.33;;
15142;SDS011;7672;50.834;6.286;2023-03-01T17:00:28;12.33;;;6.93;;
15142;SDS011;7672;50.834;6.286;2023-03-01T17:02:55;12.33;;;8.00;;
15142;SDS011;7672;50.834;6.286;2023-03-01T17:05:22;7.60;;;6.07;;
15142;SDS011;7672;50.834;6.286;2023-03-01T17:07:50;10.70;;;7.13;;
15142;SDS011;7672;50.834;6.286;2023-03-01T17:10:17;10.33;;;6.60;;
15142;SDS011;7672;50.834;6.286;2023-03-01T17:12:45;8.73;;;6.97;;
15142;SDS011;7672;50.834;6.286;2023-03-01T17:15:16;8.57;;;6.37;;
15142;SDS011;7672;50.834;6.286;2023-03-01T17:17:43;12.67;;;8.17;;
15142;SDS011;7672;50.834;6.286;2023-03-01T17:20:10;10.20;;;7.47;;
15142;SDS011;7672;50.834;6.286;2023-03-01T17:22:37;13.00;;;7.30;;
15142;SDS011;7672;50.834;6.286;2023-03-01T17:25:06;12.47;;;7.37;;
15142;SDS011;7672;50.834;6.286;2023-03-01T17:27:36;13.47;;;7.70;;
15142;SDS011;7672;50.834;6.286;2023-03-01T17:30:05;13.03;;;7.73;;
15142;SDS011;7672;50.834;6.286;2023-03-01T17:32:34;10.43;;;7.07;;
15142;SDS011;7672;50.834;6.286;2023-03-01T17:35:01;14.45;;;9.68;;
15142;SDS011;7672;50.834;6.286;2023-03-01T17:37:28;12.50;;;8.03;;